Station: EBLB - 18/02/2019 04:55Z (il y a 26 minutes)
EBLB 180455Z AUTO VRB01KT 9999 NCD M01/M02 Q1020 BLU
Vent de direction variable: 1 kt
Visibilité > 10 km
Pas de nuages détectés
Température: -01ºC - Point de rosée: -02ºC - QNH: 1020 hPa
Code couleur militaire: BLU (conditions VMC)